Time;durP1;ratioP1;P1;durP2;ratioP2;P2;SDS_P1;SDS_P2;PMS_P1;PMS_P2;Temp;Humidity;BMP_temperature;BMP_pressure;BME280_temperature;BME280_humidity;BME280_pressure;Samples;Min_cycle;Max_cycle;Signal;HPM_P1;HPM_P2
2022/06/02 00:00:06;;;;;;;13.75;10.50;;;;;;;;;;6184137;23;20017;-70
2022/06/02 00:02:51;;;;;;;16.33;11.15;;;;;;;;;;6141105;23;20022;-70
2022/06/02 00:05:17;;;;;;;15.65;10.68;;;;;;;;;;6155479;23;20133;-70
2022/06/02 00:08:01;;;;;;;16.80;10.93;;;;;;;;;;6155201;23;20057;-69
2022/06/02 00:10:40;;;;;;;22.42;11.57;;;;;;;;;;6182008;23;20017;-69
2022/06/02 00:13:09;;;;;;;18.85;10.85;;;;;;;;;;6182479;23;20028;-69
2022/06/02 00:15:40;;;;;;;19.65;11.20;;;;;;;;;;6182662;23;20096;-70
2022/06/02 00:18:06;;;;;;;16.85;11.25;;;;;;;;;;6182419;23;20024;-69
2022/06/02 00:20:35;;;;;;;14.77;10.27;;;;;;;;;;6181856;23;20020;-69
2022/06/02 00:23:07;;;;;;;17.85;11.80;;;;;;;;;;6182275;23;20394;-69
2022/06/02 00:25:52;;;;;;;13.60;10.05;;;;;;;;;;6181899;23;20021;-70
2022/06/02 00:28:24;;;;;;;17.73;11.15;;;;;;;;;;6182616;23;20474;-70
2022/06/02 00:30:50;;;;;;;21.65;11.55;;;;;;;;;;6183027;23;20411;-69
2022/06/02 00:33:36;;;;;;;18.50;12.10;;;;;;;;;;6155582;23;20020;-69
2022/06/02 00:36:06;;;;;;;20.55;13.23;;;;;;;;;;6161099;23;20461;-69
2022/06/02 00:38:36;;;;;;;21.65;13.75;;;;;;;;;;6181201;23;20021;-70
2022/06/02 00:41:17;;;;;;;20.02;12.98;;;;;;;;;;6154426;23;20021;-70
2022/06/02 00:43:50;;;;;;;20.30;12.50;;;;;;;;;;6155292;23;20071;-70
2022/06/02 00:46:46;;;;;;;18.58;12.18;;;;;;;;;;6156714;23;20017;-70
2022/06/02 00:49:21;;;;;;;17.35;11.65;;;;;;;;;;6131765;23;20017;-70
2022/06/02 00:51:53;;;;;;;20.40;12.57;;;;;;;;;;6183852;23;20023;-70
2022/06/02 01:00:14;;;;;;;19.27;12.63;;;;;;;;;;6183200;23;20029;-70
2022/06/02 01:02:51;;;;;;;20.58;12.57;;;;;;;;;;6183283;23;20031;-70
2022/06/02 01:05:22;;;;;;;19.13;13.05;;;;;;;;;;6183574;23;20017;-70
2022/06/02 01:07:51;;;;;;;23.38;14.82;;;;;;;;;;6156886;23;20025;-70
2022/06/02 01:10:17;;;;;;;;;;;;;;;;;;6156328;23;20028;-70
2022/06/02 01:13:04;;;;;;;22.52;13.50;;;;;;;;;;6183159;23;19916;-70
2022/06/02 01:15:44;;;;;;;26.70;14.88;;;;;;;;;;6156875;23;20095;-70
2022/06/02 01:18:10;;;;;;;24.65;14.20;;;;;;;;;;6156794;23;20449;-70
2022/06/02 01:20:43;;;;;;;15.70;10.77;;;;;;;;;;6132229;23;20017;-70
2022/06/02 01:23:24;;;;;;;16.05;10.73;;;;;;;;;;6183087;23;20025;-70
2022/06/02 01:26:00;;;;;;;14.23;9.50;;;;;;;;;;6182784;23;20009;-70
2022/06/02 01:28:38;;;;;;;20.42;12.40;;;;;;;;;;6183232;23;20105;-71
2022/06/02 01:31:16;;;;;;;14.18;10.63;;;;;;;;;;6183449;23;20100;-70
2022/06/02 01:33:42;;;;;;;16.35;10.27;;;;;;;;;;6156811;23;20055;-70
2022/06/02 01:36:15;;;;;;;15.88;10.85;;;;;;;;;;6132225;23;20017;-70
2022/06/02 01:39:02;;;;;;;18.23;11.00;;;;;;;;;;6182718;23;20017;-70
2022/06/02 01:41:53;;;;;;;15.45;10.85;;;;;;;;;;6156445;23;20029;-70
2022/06/02 01:44:37;;;;;;;20.20;11.40;;;;;;;;;;6182783;23;20032;-70
2022/06/02 01:47:06;;;;;;;17.30;10.68;;;;;;;;;;6183633;23;20028;-70
2022/06/02 01:49:32;;;;;;;;;;;;;;;;;;6156690;23;20442;-70
2022/06/02 01:52:07;;;;;;;18.80;11.27;;;;;;;;;;6156443;23;19923;-70
2022/06/02 01:54:41;;;;;;;17.02;11.40;;;;;;;;;;6182234;23;20086;-71
2022/06/02 01:57:13;;;;;;;19.98;12.95;;;;;;;;;;6182613;23;20100;-71
2022/06/02 01:59:58;;;;;;;19.65;11.60;;;;;;;;;;6156382;23;20021;-70
2022/06/02 02:02:28;;;;;;;20.88;11.32;;;;;;;;;;6182812;23;20152;-70
2022/06/02 02:05:13;;;;;;;18.95;11.57;;;;;;;;;;6155889;23;20031;-70
2022/06/02 02:07:46;;;;;;;18.10;11.40;;;;;;;;;;6181871;23;20056;-70
2022/06/02 02:10:30;;;;;;;14.63;9.70;;;;;;;;;;6156017;23;20017;-70
2022/06/02 02:12:56;;;;;;;18.95;11.90;;;;;;;;;;6182431;23;20797;-70
2022/06/02 02:15:26;;;;;;;19.27;12.20;;;;;;;;;;6156095;23;20056;-70
2022/06/02 02:18:05;;;;;;;17.88;11.27;;;;;;;;;;6156149;23;20013;-70
2022/06/02 02:20:45;;;;;;;17.70;11.88;;;;;;;;;;6182817;23;20028;-70
2022/06/02 02:23:13;;;;;;;19.42;11.57;;;;;;;;;;6182350;23;20363;-70
2022/06/02 02:25:59;;;;;;;19.52;12.10;;;;;;;;;;6155815;23;20060;-70
2022/06/02 02:28:44;;;;;;;16.85;10.80;;;;;;;;;;6182463;23;20558;-70
2022/06/02 02:31:10;;;;;;;20.95;12.00;;;;;;;;;;6182719;23;20021;-70
2022/06/02 02:33:39;;;;;;;17.55;11.00;;;;;;;;;;6182235;23;20507;-70
2022/06/02 02:36:21;;;;;;;25.02;12.63;;;;;;;;;;6182128;23;20464;-70
2022/06/02 02:38:54;;;;;;;20.15;11.43;;;;;;;;;;6155602;23;20021;-71
2022/06/02 02:41:27;;;;;;;18.42;11.70;;;;;;;;;;6156109;23;20100;-70
2022/06/02 02:43:56;;;;;;;22.67;12.13;;;;;;;;;;6182001;23;20065;-70
2022/06/02 02:46:42;;;;;;;25.30;12.32;;;;;;;;;;6182737;23;20149;-70
2022/06/02 02:49:11;;;;;;;27.92;13.13;;;;;;;;;;6161433;23;20024;-70
2022/06/02 02:51:56;;;;;;;26.77;13.25;;;;;;;;;;6181823;23;20017;-70
2022/06/02 02:54:45;;;;;;;23.67;13.35;;;;;;;;;;6182447;23;20013;-70
2022/06/02 02:57:17;;;;;;;19.92;12.05;;;;;;;;;;6061725;23;20019;-70
2022/06/02 02:59:54;;;;;;;24.20;12.18;;;;;;;;;;6061827;23;20026;-70
2022/06/02 03:02:21;;;;;;;23.77;12.57;;;;;;;;;;6037934;23;20328;-70
2022/06/02 03:05:05;;;;;;;35.53;13.40;;;;;;;;;;6062289;23;20046;-70
2022/06/02 03:07:31;;;;;;;23.52;12.20;;;;;;;;;;6062489;23;20022;-70
2022/06/02 03:10:06;;;;;;;34.80;13.68;;;;;;;;;;6039065;23;20536;-70
2022/06/02 03:12:32;;;;;;;34.22;13.48;;;;;;;;;;6063694;23;20029;-70
2022/06/02 03:15:10;;;;;;;39.63;14.15;;;;;;;;;;6038794;23;20047;-70
2022/06/02 03:17:36;;;;;;;39.78;14.38;;;;;;;;;;6061588;23;20029;-70
2022/06/02 03:20:15;;;;;;;40.50;15.75;;;;;;;;;;6037789;23;20030;-71
2022/06/02 03:22:59;;;;;;;34.65;15.80;;;;;;;;;;6038700;23;20456;-70
2022/06/02 03:25:31;;;;;;;35.67;16.02;;;;;;;;;;6039143;23;20030;-69
2022/06/02 03:28:09;;;;;;;31.48;15.20;;;;;;;;;;6062185;23;20027;-69
2022/06/02 03:30:43;;;;;;;40.90;15.93;;;;;;;;;;6037713;23;20105;-70
2022/06/02 03:33:28;;;;;;;31.95;14.90;;;;;;;;;;6046312;23;20023;-70
2022/06/02 03:36:06;;;;;;;34.42;15.10;;;;;;;;;;6156035;23;20021;-69
2022/06/02 03:38:35;;;;;;;25.85;13.88;;;;;;;;;;6184576;23;20024;-70
2022/06/02 03:41:01;;;;;;;;;;;;;;;;;;6184469;23;20073;-70
2022/06/02 03:43:42;;;;;;;27.95;13.32;;;;;;;;;;6155182;23;19956;-70
2022/06/02 03:46:08;;;;;;;30.65;14.70;;;;;;;;;;6155697;23;20615;-70
2022/06/02 03:48:42;;;;;;;41.30;16.05;;;;;;;;;;6182017;23;20017;-70
2022/06/02 03:51:26;;;;;;;41.05;17.10;;;;;;;;;;6182071;23;20017;-70
2022/06/02 03:53:58;;;;;;;60.85;19.52;;;;;;;;;;6130642;23;20450;-70
2022/06/02 03:56:43;;;;;;;44.20;16.63;;;;;;;;;;6182069;23;20061;-70
2022/06/02 03:59:28;;;;;;;32.35;14.50;;;;;;;;;;6130606;23;20346;-70
2022/06/02 04:02:01;;;;;;;39.83;16.08;;;;;;;;;;6155070;23;20021;-70
2022/06/02 04:04:27;;;;;;;25.52;13.05;;;;;;;;;;6155112;23;20017;-70
2022/06/02 04:07:14;;;;;;;30.08;14.55;;;;;;;;;;6155091;23;20224;-70
2022/06/02 04:09:40;;;;;;;30.23;15.27;;;;;;;;;;6121112;23;20036;-70
2022/06/02 04:15:34;;;;;;;26.52;14.35;;;;;;;;;;6066384;23;20364;-69
2022/06/02 04:18:07;;;;;;;30.63;15.23;;;;;;;;;;6089627;23;20054;-70
2022/06/02 04:20:49;;;;;;;26.33;13.25;;;;;;;;;;6092087;23;20022;-70
2022/06/02 04:23:24;;;;;;;43.13;15.05;;;;;;;;;;6068064;23;20023;-70
2022/06/02 04:26:10;;;;;;;35.38;14.88;;;;;;;;;;6091783;23;20476;-71
2022/06/02 04:28:54;;;;;;;31.83;15.60;;;;;;;;;;6092050;23;20082;-70
2022/06/02 04:31:39;;;;;;;27.30;15.80;;;;;;;;;;6067953;23;20034;-70
2022/06/02 04:34:05;;;;;;;59.22;23.20;;;;;;;;;;6091409;23;20026;-70
2022/06/02 04:36:35;;;;;;;59.70;24.45;;;;;;;;;;6067847;23;20534;-71
2022/06/02 04:39:18;;;;;;;47.00;22.58;;;;;;;;;;6091836;23;20053;-70
2022/06/02 04:41:53;;;;;;;46.63;22.98;;;;;;;;;;6092231;23;20034;-70
2022/06/02 04:44:28;;;;;;;56.95;24.40;;;;;;;;;;6091870;23;20015;-71
2022/06/02 04:47:00;;;;;;;62.35;24.33;;;;;;;;;;6158838;23;20774;-71
2022/06/02 04:49:26;;;;;;;48.20;21.80;;;;;;;;;;6183491;23;20013;-71
2022/06/02 04:52:06;;;;;;;52.33;24.85;;;;;;;;;;6183714;23;20100;-71
2022/06/02 04:54:44;;;;;;;53.30;24.58;;;;;;;;;;6157135;23;20113;-71
2022/06/02 04:57:25;;;;;;;60.20;26.58;;;;;;;;;;6183324;23;20056;-71
2022/06/02 05:00:07;;;;;;;60.58;27.75;;;;;;;;;;6183196;23;20472;-71
2022/06/02 05:02:33;;;;;;;62.17;28.92;;;;;;;;;;6182917;23;20071;-71
2022/06/02 05:05:18;;;;;;;65.57;30.52;;;;;;;;;;6183508;23;20434;-71
2022/06/02 05:07:58;;;;;;;65.80;30.10;;;;;;;;;;6183584;23;20024;-72
2022/06/02 05:10:31;;;;;;;57.10;28.75;;;;;;;;;;6183014;23;20029;-71
2022/06/02 05:12:57;;;;;;;57.05;28.42;;;;;;;;;;6156271;23;20096;-71
2022/06/02 05:15:29;;;;;;;50.83;25.60;;;;;;;;;;6183268;23;20059;-71
2022/06/02 05:18:12;;;;;;;55.33;25.77;;;;;;;;;;6182352;23;20338;-71
2022/06/02 05:20:41;;;;;;;43.63;23.40;;;;;;;;;;6183292;23;20021;-71
2022/06/02 05:23:25;;;;;;;41.08;21.52;;;;;;;;;;6156511;23;20077;-71
2022/06/02 05:26:09;;;;;;;42.58;22.65;;;;;;;;;;6183376;23;20058;-70
2022/06/02 05:28:44;;;;;;;38.58;21.70;;;;;;;;;;6182873;23;20136;-70
2022/06/02 05:31:14;;;;;;;35.95;20.98;;;;;;;;;;6155442;23;20027;-70
2022/06/02 05:33:52;;;;;;;35.33;21.55;;;;;;;;;;6156414;23;20024;-71
2022/06/02 05:36:18;;;;;;;32.80;21.42;;;;;;;;;;6183115;23;20020;-71
2022/06/02 05:38:44;;;;;;;34.13;20.92;;;;;;;;;;6182786;23;20390;-71
2022/06/02 05:41:10;;;;;;;30.50;19.05;;;;;;;;;;6183077;23;20048;-69
2022/06/02 05:43:59;;;;;;;26.77;18.10;;;;;;;;;;6182754;23;20370;-71
2022/06/02 05:46:41;;;;;;;29.52;18.27;;;;;;;;;;6140752;23;20021;-71
2022/06/02 05:49:25;;;;;;;24.13;16.92;;;;;;;;;;6182685;23;20149;-71
2022/06/02 05:52:05;;;;;;;28.70;16.80;;;;;;;;;;6183286;23;20092;-70
2022/06/02 05:54:31;;;;;;;24.80;15.35;;;;;;;;;;6182953;23;20076;-70
2022/06/02 05:56:57;;;;;;;23.98;15.50;;;;;;;;;;6182841;23;20458;-70
2022/06/02 05:59:32;;;;;;;23.77;14.52;;;;;;;;;;6155759;23;20024;-71
2022/06/02 06:02:16;;;;;;;20.42;14.18;;;;;;;;;;6183244;23;20024;-72
2022/06/02 06:04:53;;;;;;;24.17;14.95;;;;;;;;;;6183014;23;20021;-72
2022/06/02 06:07:28;;;;;;;20.88;13.50;;;;;;;;;;6156023;23;20215;-71
2022/06/02 06:09:54;;;;;;;17.80;13.07;;;;;;;;;;6155689;23;20017;-71
2022/06/02 06:12:26;;;;;;;18.38;13.10;;;;;;;;;;6156264;23;20025;-70
2022/06/02 06:15:08;;;;;;;18.55;13.43;;;;;;;;;;6184986;23;20025;-70
2022/06/02 06:17:36;;;;;;;16.15;12.52;;;;;;;;;;6184819;23;20051;-71
2022/06/02 06:20:07;;;;;;;20.23;13.13;;;;;;;;;;6184255;23;20363;-70
2022/06/02 06:22:36;;;;;;;18.20;14.18;;;;;;;;;;6182934;23;20029;-70
2022/06/02 06:25:14;;;;;;;18.35;13.60;;;;;;;;;;6156205;23;20047;-70
2022/06/02 06:27:40;;;;;;;17.48;11.68;;;;;;;;;;6187283;23;20024;-69
2022/06/02 06:30:09;;;;;;;18.25;13.35;;;;;;;;;;6162556;23;20017;-70
2022/06/02 06:32:44;;;;;;;17.13;12.15;;;;;;;;;;6160831;23;20024;-70
2022/06/02 06:35:29;;;;;;;15.40;12.05;;;;;;;;;;6133972;23;20075;-71
2022/06/02 06:37:58;;;;;;;14.80;11.40;;;;;;;;;;6182648;23;20319;-71
2022/06/02 06:40:28;;;;;;;14.48;11.23;;;;;;;;;;6156031;23;20500;-71
2022/06/02 06:42:54;;;;;;;20.38;12.45;;;;;;;;;;6181707;23;20075;-71
2022/06/02 06:45:25;;;;;;;39.75;14.82;;;;;;;;;;6182612;23;20397;-71
2022/06/02 06:47:59;;;;;;;14.55;10.40;;;;;;;;;;6182745;23;20048;-71
2022/06/02 06:50:31;;;;;;;12.30;10.13;;;;;;;;;;6182136;23;20473;-70
2022/06/02 06:52:57;;;;;;;9.57;7.15;;;;;;;;;;6181901;23;20071;-70
2022/06/02 06:55:31;;;;;;;11.75;7.38;;;;;;;;;;6182201;23;20092;-70
2022/06/02 06:58:03;;;;;;;8.70;7.15;;;;;;;;;;6155166;23;20017;-71
2022/06/02 07:00:31;;;;;;;11.93;8.05;;;;;;;;;;6182192;23;20040;-69
2022/06/02 07:02:57;;;;;;;9.57;6.35;;;;;;;;;;6155665;23;20032;-70
2022/06/02 07:05:27;;;;;;;11.05;6.88;;;;;;;;;;6181981;23;20012;-70
2022/06/02 07:07:53;;;;;;;8.52;6.93;;;;;;;;;;6155296;23;20025;-71
2022/06/02 07:10:28;;;;;;;11.75;6.63;;;;;;;;;;6182068;23;20122;-70
2022/06/02 07:13:13;;;;;;;6.43;5.75;;;;;;;;;;6181164;23;20404;-72
2022/06/02 07:15:41;;;;;;;12.95;7.85;;;;;;;;;;6181554;23;20051;-69
2022/06/02 07:18:23;;;;;;;9.02;6.22;;;;;;;;;;6182190;23;20021;-70
2022/06/02 07:20:48;;;;;;;8.15;5.90;;;;;;;;;;6182173;23;20071;-70
2022/06/02 07:23:17;;;;;;;9.50;4.85;;;;;;;;;;6182134;23;20096;-70
2022/06/02 07:26:03;;;;;;;6.13;3.67;;;;;;;;;;6155268;23;20469;-70
2022/06/02 07:28:55;;;;;;;20.63;8.18;;;;;;;;;;6154678;23;20035;-70
2022/06/02 07:31:21;;;;;;;6.68;4.40;;;;;;;;;;6181911;23;20025;-71
2022/06/02 07:33:47;;;;;;;13.93;6.47;;;;;;;;;;6181824;23;20018;-70
2022/06/02 07:36:19;;;;;;;6.25;3.78;;;;;;;;;;6181674;23;20016;-70
2022/06/02 07:39:00;;;;;;;4.68;4.00;;;;;;;;;;6181728;23;20021;-70
2022/06/02 07:41:45;;;;;;;8.02;4.25;;;;;;;;;;6154387;23;20454;-70
2022/06/02 07:44:29;;;;;;;6.20;3.72;;;;;;;;;;6154990;23;20021;-69
2022/06/02 07:47:11;;;;;;;5.65;3.58;;;;;;;;;;6130261;23;20096;-70
2022/06/02 07:49:40;;;;;;;6.22;3.72;;;;;;;;;;6181106;23;20028;-70
2022/06/02 07:52:12;;;;;;;3.90;3.50;;;;;;;;;;6181720;23;20020;-69
2022/06/02 07:54:57;;;;;;;5.10;3.53;;;;;;;;;;6154707;23;20021;-69
2022/06/02 07:57:36;;;;;;;4.20;3.13;;;;;;;;;;6154262;23;20091;-69
2022/06/02 08:00:14;;;;;;;5.43;3.20;;;;;;;;;;6155148;23;20088;-70
2022/06/02 08:02:52;;;;;;;6.68;3.00;;;;;;;;;;6181460;23;20334;-70
2022/06/02 08:05:22;;;;;;;3.58;2.92;;;;;;;;;;6155123;23;20438;-71
2022/06/02 08:08:02;;;;;;;6.05;3.42;;;;;;;;;;6181866;23;20013;-71
2022/06/02 08:10:40;;;;;;;3.42;2.78;;;;;;;;;;6154597;23;20096;-71
2022/06/02 08:13:15;;;;;;;5.97;3.47;;;;;;;;;;6155295;23;20017;-70
2022/06/02 08:15:54;;;;;;;16.17;4.35;;;;;;;;;;6181360;23;20029;-70
2022/06/02 08:18:25;;;;;;;7.95;3.75;;;;;;;;;;6181337;23;20024;-70
2022/06/02 08:21:16;;;;;;;4.93;2.80;;;;;;;;;;6181737;23;20021;-70
2022/06/02 08:23:48;;;;;;;3.53;2.30;;;;;;;;;;6181420;23;20021;-70
2022/06/02 08:26:24;;;;;;;3.40;2.25;;;;;;;;;;6181323;23;20093;-71
2022/06/02 08:28:56;;;;;;;3.95;2.30;;;;;;;;;;6155327;23;20021;-71
2022/06/02 08:31:41;;;;;;;5.45;2.88;;;;;;;;;;6181308;23;20442;-71
2022/06/02 08:34:07;;;;;;;5.10;3.13;;;;;;;;;;6181919;23;20017;-72
2022/06/02 08:36:51;;;;;;;4.45;2.97;;;;;;;;;;6130728;23;20028;-72
2022/06/02 08:39:34;;;;;;;4.25;2.72;;;;;;;;;;6180830;23;20025;-71
2022/06/02 08:42:13;;;;;;;5.35;2.88;;;;;;;;;;6181935;23;20017;-70
2022/06/02 08:44:42;;;;;;;9.60;3.50;;;;;;;;;;6154908;23;20021;-70
2022/06/02 08:47:17;;;;;;;3.45;2.75;;;;;;;;;;6182171;23;20021;-69
2022/06/02 08:49:53;;;;;;;7.97;3.17;;;;;;;;;;6181192;23;20273;-70
2022/06/02 08:52:37;;;;;;;6.75;3.50;;;;;;;;;;6181548;23;20100;-69
2022/06/02 08:55:22;;;;;;;4.50;2.58;;;;;;;;;;6180845;23;20032;-69
2022/06/02 08:58:06;;;;;;;4.15;2.67;;;;;;;;;;6181472;23;20064;-69
2022/06/02 09:00:38;;;;;;;4.97;2.83;;;;;;;;;;6181231;23;20017;-69
2022/06/02 09:03:21;;;;;;;17.05;5.75;;;;;;;;;;6155234;23;20068;-69
2022/06/02 09:05:50;;;;;;;5.65;2.42;;;;;;;;;;6155440;23;20032;-69
2022/06/02 09:08:35;;;;;;;4.45;2.17;;;;;;;;;;6182875;23;20470;-69
2022/06/02 09:11:21;;;;;;;3.60;2.60;;;;;;;;;;6156530;23;20052;-70
2022/06/02 09:13:53;;;;;;;3.88;2.63;;;;;;;;;;6157725;23;20076;-71
2022/06/02 09:16:26;;;;;;;8.63;3.58;;;;;;;;;;6183204;23;20056;-70
2022/06/02 09:19:02;;;;;;;6.85;2.72;;;;;;;;;;6157143;23;20029;-70
2022/06/02 09:21:33;;;;;;;3.75;2.90;;;;;;;;;;6183278;23;20311;-70
2022/06/02 09:24:22;;;;;;;2.92;2.42;;;;;;;;;;6182595;23;20021;-70
2022/06/02 09:27:00;;;;;;;5.63;2.28;;;;;;;;;;6011658;23;20469;-71
2022/06/02 09:29:38;;;;;;;3.35;2.45;;;;;;;;;;6036084;23;20015;-70
2022/06/02 09:32:22;;;;;;;5.00;2.67;;;;;;;;;;6034612;23;20019;-71
2022/06/02 09:34:54;;;;;;;2.40;2.20;;;;;;;;;;6034289;23;20251;-71
2022/06/02 09:37:31;;;;;;;2.60;2.40;;;;;;;;;;6033524;23;20023;-70
2022/06/02 09:40:06;;;;;;;5.68;3.03;;;;;;;;;;6034499;23;20477;-70
2022/06/02 09:42:32;;;;;;;3.75;2.80;;;;;;;;;;6031969;23;20460;-70
2022/06/02 09:45:01;;;;;;;6.97;2.85;;;;;;;;;;5983618;23;20477;-70
2022/06/02 09:47:38;;;;;;;2.22;2.03;;;;;;;;;;5982544;23;20142;-71
2022/06/02 09:50:10;;;;;;;3.77;2.70;;;;;;;;;;6005690;23;20515;-70
2022/06/02 09:52:45;;;;;;;3.30;1.92;;;;;;;;;;5981479;23;20335;-71
2022/06/02 09:55:11;;;;;;;8.88;3.72;;;;;;;;;;6005472;23;20031;-71
2022/06/02 09:57:58;;;;;;;15.00;6.43;;;;;;;;;;6005649;23;20350;-71
2022/06/02 10:00:38;;;;;;;17.25;6.05;;;;;;;;;;5982092;23;20089;-71
2022/06/02 10:03:23;;;;;;;3.15;2.30;;;;;;;;;;6028869;23;20022;-71
2022/06/02 10:05:58;;;;;;;4.75;2.40;;;;;;;;;;6122785;23;20033;-72
2022/06/02 10:08:31;;;;;;;2.40;2.03;;;;;;;;;;6121884;23;20018;-71
2022/06/02 10:11:13;;;;;;;3.80;2.22;;;;;;;;;;6123210;23;20029;-71
2022/06/02 10:13:58;;;;;;;3.03;2.13;;;;;;;;;;6123652;23;20364;-72
2022/06/02 10:16:43;;;;;;;2.63;2.20;;;;;;;;;;6123120;23;20448;-71
2022/06/02 10:19:28;;;;;;;4.60;2.75;;;;;;;;;;6123311;23;20134;-71
2022/06/02 10:22:03;;;;;;;5.05;2.60;;;;;;;;;;6122840;23;20018;-70
2022/06/02 10:24:56;;;;;;;3.10;2.22;;;;;;;;;;6123039;23;20337;-71
2022/06/02 10:27:29;;;;;;;2.92;2.72;;;;;;;;;;6123047;23;20448;-71
2022/06/02 10:29:58;;;;;;;3.20;2.75;;;;;;;;;;6123269;23;20354;-71
2022/06/02 10:32:24;;;;;;;5.03;2.88;;;;;;;;;;6123170;23;20022;-72
2022/06/02 10:34:50;;;;;;;9.10;3.42;;;;;;;;;;6121038;23;20025;-71
2022/06/02 10:37:22;;;;;;;5.03;2.88;;;;;;;;;;6121703;23;20041;-71
2022/06/02 10:40:03;;;;;;;8.63;3.13;;;;;;;;;;6123094;23;20017;-72
2022/06/02 10:42:38;;;;;;;3.30;2.40;;;;;;;;;;6127518;23;20467;-72
2022/06/02 10:45:37;;;;;;;2.72;2.20;;;;;;;;;;6182811;23;20044;-73
2022/06/02 10:48:09;;;;;;;3.95;2.10;;;;;;;;;;6101580;23;20460;-72
2022/06/02 10:50:38;;;;;;;2.83;2.17;;;;;;;;;;6155023;23;20033;-72
2022/06/02 10:53:04;;;;;;;2.05;1.80;;;;;;;;;;6156219;23;20144;-73
2022/06/02 10:55:49;;;;;;;3.75;1.88;;;;;;;;;;6182095;23;20026;-72
2022/06/02 10:58:24;;;;;;;3.45;2.40;;;;;;;;;;6154939;23;20021;-72
2022/06/02 11:01:20;;;;;;;4.78;2.92;;;;;;;;;;6155871;23;20025;-71
2022/06/02 11:04:04;;;;;;;3.70;2.45;;;;;;;;;;6150507;23;20075;-71
2022/06/02 11:06:39;;;;;;;9.98;3.17;;;;;;;;;;6155710;23;20025;-72
2022/06/02 11:09:18;;;;;;;3.00;2.50;;;;;;;;;;6181743;23;20024;-72
2022/06/02 11:11:56;;;;;;;7.60;3.75;;;;;;;;;;6155651;23;20057;-72
2022/06/02 11:14:32;;;;;;;4.53;2.45;;;;;;;;;;6155707;23;20032;-72
2022/06/02 11:16:58;;;;;;;3.72;2.10;;;;;;;;;;6155941;23;20032;-69
2022/06/02 11:19:42;;;;;;;6.95;2.67;;;;;;;;;;6181983;23;20013;-69
2022/06/02 11:22:20;;;;;;;4.28;2.53;;;;;;;;;;6155664;23;20017;-69
2022/06/02 11:24:55;;;;;;;2.28;2.00;;;;;;;;;;6181855;23;20017;-69
2022/06/02 11:27:25;;;;;;;4.40;2.00;;;;;;;;;;6155944;23;20497;-69
2022/06/02 11:29:57;;;;;;;2.45;1.90;;;;;;;;;;6181349;23;20385;-71
2022/06/02 11:32:29;;;;;;;3.05;2.17;;;;;;;;;;6181995;23;20056;-72
2022/06/02 11:35:05;;;;;;;2.78;2.40;;;;;;;;;;6130464;23;20068;-69
2022/06/02 11:37:53;;;;;;;3.22;2.15;;;;;;;;;;6182560;23;20024;-72
2022/06/02 11:40:42;;;;;;;3.38;2.03;;;;;;;;;;6181512;23;20028;-71
2022/06/02 11:43:25;;;;;;;6.15;2.35;;;;;;;;;;6154858;23;20035;-71
2022/06/02 11:46:12;;;;;;;4.32;2.00;;;;;;;;;;6182425;23;20021;-72
2022/06/02 11:49:04;;;;;;;3.35;1.88;;;;;;;;;;6181098;23;20017;-71
2022/06/02 11:51:33;;;;;;;2.47;1.67;;;;;;;;;;6177062;23;20161;-72
2022/06/02 11:54:05;;;;;;;3.08;2.10;;;;;;;;;;6186094;23;20040;-72
2022/06/02 11:56:43;;;;;;;4.95;2.10;;;;;;;;;;6159510;23;20021;-71
2022/06/02 11:59:12;;;;;;;2.97;1.60;;;;;;;;;;6182731;23;20017;-71
2022/06/02 12:01:42;;;;;;;4.22;1.77;;;;;;;;;;6155545;23;20088;-72
2022/06/02 12:04:23;;;;;;;2.13;1.20;;;;;;;;;;6181929;23;20049;-72
2022/06/02 12:07:01;;;;;;;2.97;1.40;;;;;;;;;;6155339;23;20021;-72
2022/06/02 12:09:46;;;;;;;3.63;1.55;;;;;;;;;;6181379;23;20021;-72
2022/06/02 12:12:12;;;;;;;1.63;1.10;;;;;;;;;;6155258;23;20052;-72
2022/06/02 12:15:05;;;;;;;1.77;1.20;;;;;;;;;;6181746;23;20315;-72
2022/06/02 12:17:43;;;;;;;1.75;1.20;;;;;;;;;;6155079;23;20021;-72
2022/06/02 12:20:10;;;;;;;;;;;;;;;;;;6181953;23;20346;-73
2022/06/02 12:23:00;;;;;;;1.27;0.93;;;;;;;;;;6181807;23;19966;-72
2022/06/02 12:25:45;;;;;;;1.40;0.90;;;;;;;;;;6181599;23;20024;-72
2022/06/02 12:28:11;;;;;;;1.45;1.35;;;;;;;;;;6181417;23;20021;-72
2022/06/02 12:30:56;;;;;;;1.67;1.13;;;;;;;;;;6181563;23;20024;-72
2022/06/02 12:33:34;;;;;;;3.03;1.30;;;;;;;;;;6155049;23;20025;-72
2022/06/02 12:36:06;;;;;;;1.77;1.30;;;;;;;;;;6153613;23;20021;-72
2022/06/02 12:39:01;;;;;;;2.33;1.63;;;;;;;;;;6182284;23;20024;-72
2022/06/02 12:41:55;;;;;;;2.08;1.23;;;;;;;;;;6153731;23;20020;-71
2022/06/02 12:44:27;;;;;;;3.10;1.20;;;;;;;;;;6133865;23;20028;-71
2022/06/02 12:47:19;;;;;;;2.72;1.40;;;;;;;;;;6159665;23;20413;-71
2022/06/02 12:49:45;;;;;;;2.63;1.30;;;;;;;;;;6178260;23;20017;-71
2022/06/02 12:52:30;;;;;;;1.40;1.10;;;;;;;;;;6183665;23;20496;-71
2022/06/02 12:55:18;;;;;;;2.83;1.00;;;;;;;;;;6183745;23;20354;-73
2022/06/02 12:57:44;;;;;;;;;;;;;;;;;;6186124;23;20442;-71
2022/06/02 13:00:29;;;;;;;1.02;0.85;;;;;;;;;;6185337;23;19927;-71
2022/06/02 13:03:14;;;;;;;2.05;0.80;;;;;;;;;;6159193;23;20024;-72
2022/06/02 13:05:49;;;;;;;1.08;0.90;;;;;;;;;;6157109;23;20080;-72
2022/06/02 13:08:21;;;;;;;3.42;1.00;;;;;;;;;;6182667;23;20544;-71
2022/06/02 13:10:53;;;;;;;1.42;0.90;;;;;;;;;;6183128;23;20028;-75
2022/06/02 13:13:31;;;;;;;5.95;1.95;;;;;;;;;;6157142;23;20051;-76
2022/06/02 13:16:16;;;;;;;3.67;1.67;;;;;;;;;;6156077;23;20032;-73
2022/06/02 13:19:01;;;;;;;0.95;0.75;;;;;;;;;;6156770;23;20021;-74
2022/06/02 13:21:56;;;;;;;1.33;1.05;;;;;;;;;;6182736;23;20021;-72
2022/06/02 13:24:32;;;;;;;1.42;0.73;;;;;;;;;;6182595;23;20028;-72
2022/06/02 13:27:34;;;;;;;0.93;0.80;;;;;;;;;;6182769;23;20017;-71
2022/06/02 13:30:24;;;;;;;1.95;1.10;;;;;;;;;;6033427;23;20091;-71
2022/06/02 13:33:10;;;;;;;9.43;1.92;;;;;;;;;;6023531;23;20102;-72
2022/06/02 13:35:54;;;;;;;9.25;2.45;;;;;;;;;;6010600;23;20062;-71
2022/06/02 13:38:26;;;;;;;2.40;0.98;;;;;;;;;;6033908;23;20055;-72
2022/06/02 13:40:58;;;;;;;1.98;0.77;;;;;;;;;;6034025;23;20024;-72
2022/06/02 13:43:42;;;;;;;2.28;0.85;;;;;;;;;;6009088;23;20026;-71
2022/06/02 13:46:17;;;;;;;4.63;1.10;;;;;;;;;;6010165;23;20022;-72
2022/06/02 13:48:57;;;;;;;2.50;0.90;;;;;;;;;;6034256;23;20091;-72
2022/06/02 13:51:32;;;;;;;1.75;0.90;;;;;;;;;;6033261;23;20054;-72
2022/06/02 13:59:52;;;;;;;10.30;2.10;;;;;;;;;;6033443;23;20019;-72
2022/06/02 14:02:47;;;;;;;2.47;0.80;;;;;;;;;;6034046;23;20023;-72
2022/06/02 14:05:13;;;;;;;1.92;1.13;;;;;;;;;;6183055;23;20024;-72
2022/06/02 14:07:58;;;;;;;2.10;0.85;;;;;;;;;;6182691;23;20362;-74
2022/06/02 14:10:37;;;;;;;6.78;1.63;;;;;;;;;;6182433;23;20092;-72
2022/06/02 14:13:19;;;;;;;0.90;0.80;;;;;;;;;;6182103;23;20021;-72
2022/06/02 14:15:48;;;;;;;2.80;0.90;;;;;;;;;;6182537;23;20490;-72
2022/06/02 14:18:17;;;;;;;2.40;1.38;;;;;;;;;;6182611;23;20009;-72
2022/06/02 14:20:48;;;;;;;2.08;1.00;;;;;;;;;;6182799;23;20079;-71
2022/06/02 14:23:14;;;;;;;2.17;1.00;;;;;;;;;;6182486;23;20021;-72
2022/06/02 14:25:45;;;;;;;6.78;2.13;;;;;;;;;;6182706;23;20017;-72
2022/06/02 14:28:26;;;;;;;4.90;1.38;;;;;;;;;;6181910;23;20017;-72
2022/06/02 14:31:10;;;;;;;2.85;1.52;;;;;;;;;;6182252;23;20342;-71
2022/06/02 14:33:45;;;;;;;17.27;4.85;;;;;;;;;;6182330;23;20465;-71
2022/06/02 14:36:30;;;;;;;20.70;4.88;;;;;;;;;;6182311;23;20469;-71
2022/06/02 14:39:25;;;;;;;12.48;2.63;;;;;;;;;;6182755;23;20017;-72
2022/06/02 14:42:03;;;;;;;8.10;2.20;;;;;;;;;;6032664;23;20031;-73
2022/06/02 14:44:29;;;;;;;3.08;1.67;;;;;;;;;;6033186;23;20051;-71
2022/06/02 14:46:55;;;;;;;6.38;1.83;;;;;;;;;;6033218;23;20039;-71
2022/06/02 14:49:37;;;;;;;8.75;1.80;;;;;;;;;;6010755;23;20030;-71
2022/06/02 14:52:08;;;;;;;8.18;4.75;;;;;;;;;;6034475;23;20520;-70
2022/06/02 14:54:55;;;;;;;4.63;1.77;;;;;;;;;;6033432;23;20020;-70
2022/06/02 14:57:28;;;;;;;11.60;2.47;;;;;;;;;;6018642;23;20019;-71
2022/06/02 15:00:05;;;;;;;4.10;1.70;;;;;;;;;;6009762;23;20023;-71
2022/06/02 15:02:50;;;;;;;1.65;0.80;;;;;;;;;;6033172;23;20019;-71
2022/06/02 15:05:33;;;;;;;12.10;2.35;;;;;;;;;;6009613;23;20110;-71
2022/06/02 15:08:05;;;;;;;10.15;3.08;;;;;;;;;;6009863;23;20102;-72
2022/06/02 15:10:58;;;;;;;3.67;1.38;;;;;;;;;;6032318;23;20102;-72
2022/06/02 15:13:41;;;;;;;4.13;1.60;;;;;;;;;;6033077;23;20062;-72
2022/06/02 15:16:26;;;;;;;2.17;1.23;;;;;;;;;;6009452;23;20055;-72
2022/06/02 15:19:19;;;;;;;3.08;1.10;;;;;;;;;;6144030;23;20017;-72
2022/06/02 15:21:50;;;;;;;3.33;1.25;;;;;;;;;;6182276;23;20044;-72
2022/06/02 15:24:33;;;;;;;4.07;1.58;;;;;;;;;;6182027;23;20016;-72
2022/06/02 15:27:18;;;;;;;9.15;3.00;;;;;;;;;;6154899;23;20411;-72
2022/06/02 15:29:44;;;;;;;3.60;1.20;;;;;;;;;;6182355;23;20017;-73
2022/06/02 15:32:10;;;;;;;3.97;1.27;;;;;;;;;;6155396;23;20394;-72
2022/06/02 15:34:42;;;;;;;8.13;1.52;;;;;;;;;;6155320;23;20049;-72
2022/06/02 15:37:20;;;;;;;2.88;1.20;;;;;;;;;;6182148;23;20073;-72
2022/06/02 15:39:46;;;;;;;;;;;;;;;;;;6155596;23;20013;-72
2022/06/02 15:42:19;;;;;;;4.05;1.10;;;;;;;;;;6181967;23;19916;-73